Marquette, MI

11:15 PM EST on February 05, 2016 (GMT -0500)
South Marquette | | Change Station
CLOSE
Current Station
Personal Weather Station
Location: Marquette, MI
Elevation: 843 ft
Nearby Weather Stations

Elev 843 ft 46.53 °N, 87.42 °W | Updated 3 minutes ago

Overcast
Overcast
25.4 °F
Feels Like 25 °F
N
1.0
Wind Variable Wind from SSE
Gusts 3.0 mph

Today
High -- | Low -- °F
--% Chance of Precip.
Yesterday
High -- | Low -- °F
Precip. -- in
Pressure 30.09 in
Visibility 10.0 miles
Clouds Mostly Cloudy 8000 ft
Overcast 12000 ft
Windchill 25 °F
Dew Point 15 °F
Humidity 65%
Rainfall 0.00 in
Snow Depth Not available.
8:08 AM 5:58 PM
Waning Crescent, 7% visible
METAR KSAW 060357Z AUTO 22011KT 10SM BKN080 OVC120 M05/M11 A3009 RMK AO2 T10521109
Pressure 30.09 in
Visibility 10.0 miles
Clouds Mostly Cloudy 8000 ft
Overcast 12000 ft
Windchill 25 °F
Dew Point 15 °F
Humidity 65%
Rainfall 0.00 in
Snow Depth Not available.
8:08 AM 5:58 PM
Waning Crescent, 7% visible
METAR KSAW 060357Z AUTO 22011KT 10SM BKN080 OVC120 M05/M11 A3009 RMK AO2 T10521109

10-Day Weather Forecast

Almanac

Astronomy

Feb. 05, 2016 Rise Set
Actual Time
Civil Twilight
Nautical Twilight
Astronomical Twilight
Moon
Length of Visible Light
Length of Day
Tomorrow will be .
, % of the Moon is Illuminated

Today's Extremes

State Highs State Lows

Community

WunderPhotos

Upload Photos

1,890,917 photos uploaded!

WunderBlog® & News

Nearby

Air Quality

  Air Quality AQ Index Pollutant
Not available.

Snow Depth

Station Depth Elevation

Earthquake Activity

City Distance Mag. Time & Date
Minimum magnitude displayed is 2.5.

Coastal Water Temperatures

Place Temperature

Stations

Nearby Weather Stations

Station Location Temp. Windchill Dew Point Humidity Wind Precip. Elev Updated Type
                   

Watches & Warnings

There are currently no watches in effect.